createdAt,value
2022-08-27T00:00:16.349Z,99.90
2022-08-27T00:02:57.877Z,99.90
2022-08-27T00:09:15.056Z,99.90
2022-08-27T00:11:46.555Z,99.90
2022-08-27T00:14:16.030Z,99.90
2022-08-27T00:16:45.803Z,99.90
2022-08-27T00:19:13.912Z,99.90
2022-08-27T00:21:42.103Z,99.90
2022-08-27T00:24:35.451Z,99.90
2022-08-27T00:27:06.833Z,99.90
2022-08-27T00:29:35.109Z,99.90
2022-08-27T00:32:06.942Z,99.90
2022-08-27T00:42:25.246Z,99.90
2022-08-27T00:44:59.744Z,99.90
2022-08-27T00:54:43.826Z,99.90
2022-08-27T00:58:26.375Z,99.90
2022-08-27T01:00:56.571Z,99.90
2022-08-27T01:04:43.319Z,99.90
2022-08-27T01:08:06.694Z,99.90
2022-08-27T01:10:41.363Z,99.90
2022-08-27T01:14:00.508Z,99.90
2022-08-27T01:16:38.689Z,99.90
2022-08-27T01:19:39.109Z,99.90
2022-08-27T01:22:19.159Z,99.90
2022-08-27T01:24:56.553Z,99.90
2022-08-27T01:27:53.540Z,99.90
2022-08-27T01:30:24.660Z,99.90
2022-08-27T01:36:09.551Z,99.90
2022-08-27T01:39:45.637Z,99.90
2022-08-27T01:42:27.487Z,99.90
2022-08-27T01:44:57.731Z,99.90
2022-08-27T01:47:31.228Z,99.90
2022-08-27T01:50:04.903Z,99.90
2022-08-27T01:52:34.617Z,99.90
2022-08-27T01:55:03.833Z,99.90
2022-08-27T01:57:35.046Z,99.90
2022-08-27T02:00:06.136Z,99.90
2022-08-27T02:02:40.767Z,99.90
2022-08-27T02:05:14.079Z,99.90
2022-08-27T02:07:43.910Z,99.90
2022-08-27T02:10:19.641Z,99.90
2022-08-27T02:12:49.810Z,99.90
2022-08-27T02:15:22.165Z,99.90
2022-08-27T02:17:52.367Z,99.90
2022-08-27T02:20:22.107Z,99.90
2022-08-27T02:22:50.834Z,99.90
2022-08-27T02:25:24.796Z,99.90
2022-08-27T02:27:57.132Z,99.90
2022-08-27T02:30:25.587Z,99.90
2022-08-27T02:32:55.922Z,99.90
2022-08-27T02:35:25.902Z,99.90
2022-08-27T02:37:56.062Z,99.90
2022-08-27T02:40:26.274Z,99.90
2022-08-27T02:43:29.280Z,99.90
2022-08-27T02:46:24.041Z,99.90
2022-08-27T02:49:03.178Z,99.90
2022-08-27T02:51:39.473Z,99.90
2022-08-27T02:54:11.383Z,99.90
2022-08-27T02:56:40.822Z,99.90
2022-08-27T02:59:13.251Z,99.90
2022-08-27T03:01:43.915Z,99.90
2022-08-27T03:04:12.890Z,99.90
2022-08-27T03:06:44.439Z,99.90
2022-08-27T03:09:16.728Z,99.90
2022-08-27T03:11:46.716Z,99.90
2022-08-27T03:14:16.838Z,99.90
2022-08-27T03:16:46.034Z,99.90
2022-08-27T03:19:13.207Z,99.90
2022-08-27T03:21:41.750Z,99.90
2022-08-27T03:24:11.666Z,99.90
2022-08-27T03:26:52.881Z,99.90
2022-08-27T03:29:23.874Z,99.90
2022-08-27T03:31:51.909Z,99.90
2022-08-27T03:34:23.292Z,99.90
2022-08-27T03:36:54.819Z,99.90
2022-08-27T03:39:24.083Z,99.90
2022-08-27T03:41:54.737Z,99.90
2022-08-27T03:44:25.733Z,99.90
2022-08-27T03:46:54.920Z,99.90
2022-08-27T03:49:24.433Z,99.90
2022-08-27T03:51:54.227Z,99.90
2022-08-27T03:54:22.457Z,99.90
2022-08-27T03:56:50.769Z,99.90
2022-08-27T03:59:19.768Z,99.90
2022-08-27T04:01:52.997Z,99.90
2022-08-27T04:04:21.481Z,99.90
2022-08-27T04:06:53.851Z,99.90
2022-08-27T04:09:25.848Z,99.90
2022-08-27T04:11:54.593Z,99.90
2022-08-27T04:14:26.236Z,99.90
2022-08-27T04:16:58.901Z,99.90
2022-08-27T04:19:30.317Z,99.90
2022-08-27T04:22:04.453Z,99.90
2022-08-27T04:24:35.903Z,99.90
2022-08-27T04:27:10.776Z,99.90
2022-08-27T04:29:42.385Z,99.90
2022-08-27T04:32:12.925Z,99.90
2022-08-27T04:34:41.591Z,99.90
2022-08-27T04:37:09.828Z,99.90
2022-08-27T04:39:38.199Z,99.90
2022-08-27T04:42:08.293Z,99.90
2022-08-27T04:44:36.933Z,99.90
2022-08-27T04:47:06.941Z,99.90
2022-08-27T04:49:37.769Z,99.90
2022-08-27T04:52:09.217Z,99.90
2022-08-27T04:54:37.289Z,99.90
2022-08-27T04:57:08.228Z,99.90
2022-08-27T04:59:39.042Z,99.90
2022-08-27T05:02:10.949Z,99.90
2022-08-27T05:04:42.013Z,99.90
2022-08-27T05:07:11.819Z,99.90
2022-08-27T05:09:40.004Z,99.90
2022-08-27T05:12:08.665Z,99.90
2022-08-27T05:14:37.689Z,99.90
2022-08-27T05:17:09.008Z,99.90
2022-08-27T05:19:37.792Z,99.90
2022-08-27T05:22:07.947Z,99.90
2022-08-27T05:24:36.816Z,99.90
2022-08-27T05:27:05.473Z,99.90
2022-08-27T05:29:37.001Z,99.90
2022-08-27T05:32:06.949Z,99.90
2022-08-27T05:34:35.467Z,99.90
2022-08-27T05:37:03.625Z,99.90
2022-08-27T05:39:34.117Z,99.90
2022-08-27T05:42:03.838Z,99.90
2022-08-27T05:44:41.282Z,99.90
2022-08-27T05:47:10.426Z,99.90
2022-08-27T05:49:39.492Z,99.90
2022-08-27T05:52:10.868Z,99.90
2022-08-27T05:54:40.968Z,99.90
2022-08-27T05:57:09.071Z,99.90
2022-08-27T05:59:57.178Z,99.90
2022-08-27T06:02:26.046Z,99.90
2022-08-27T06:04:54.656Z,99.90
2022-08-27T06:07:23.832Z,99.90
2022-08-27T06:09:55.032Z,99.90
2022-08-27T06:12:27.272Z,99.90
2022-08-27T06:14:57.667Z,99.90
2022-08-27T06:17:25.886Z,99.90
2022-08-27T06:19:58.007Z,99.90
2022-08-27T06:22:26.029Z,99.90
2022-08-27T06:24:55.686Z,99.90
2022-08-27T06:27:23.895Z,99.90
2022-08-27T06:29:51.924Z,99.90
2022-08-27T06:32:20.072Z,99.90
2022-08-27T06:34:51.410Z,99.90
2022-08-27T06:37:19.472Z,99.90
2022-08-27T06:39:47.550Z,99.90
2022-08-27T06:42:17.978Z,99.90
2022-08-27T06:44:54.565Z,99.90
2022-08-27T06:47:22.900Z,99.90
2022-08-27T06:49:51.058Z,99.90
2022-08-27T06:52:19.538Z,99.90
2022-08-27T06:54:47.731Z,99.90
2022-08-27T06:57:17.288Z,99.90
2022-08-27T06:59:50.067Z,99.90
2022-08-27T07:02:19.132Z,99.90
2022-08-27T07:04:47.638Z,99.90
2022-08-27T07:07:32.579Z,99.90
2022-08-27T07:10:05.919Z,99.90
2022-08-27T07:12:37.922Z,99.90
2022-08-27T07:15:11.205Z,99.90
2022-08-27T07:17:41.184Z,99.90
2022-08-27T07:20:12.360Z,99.90
2022-08-27T07:22:41.039Z,99.90
2022-08-27T07:25:12.475Z,99.90
2022-08-27T07:27:42.990Z,99.90
2022-08-27T07:30:15.405Z,99.90
2022-08-27T07:32:48.995Z,99.90
2022-08-27T07:35:17.376Z,99.90
2022-08-27T07:37:45.485Z,99.90
2022-08-27T07:40:16.277Z,99.90
2022-08-27T07:43:03.291Z,99.90
2022-08-27T07:45:31.934Z,99.90
2022-08-27T07:48:00.120Z,99.90
2022-08-27T07:50:28.335Z,99.90
2022-08-27T07:52:56.393Z,99.90
2022-08-27T07:55:24.703Z,99.90
2022-08-27T07:57:54.822Z,99.90
2022-08-27T08:00:25.358Z,99.90
2022-08-27T08:02:53.596Z,99.90
2022-08-27T08:05:22.060Z,99.90
2022-08-27T08:07:52.098Z,99.90
2022-08-27T08:10:27.103Z,99.90
2022-08-27T08:12:59.481Z,99.90
2022-08-27T08:15:30.179Z,99.90
2022-08-27T08:18:03.518Z,99.90
2022-08-27T08:20:56.402Z,99.90
2022-08-27T08:23:26.027Z,99.90
2022-08-27T08:25:55.040Z,99.90
2022-08-27T08:28:25.331Z,99.90
2022-08-27T08:31:01.082Z,99.90
2022-08-27T08:33:35.587Z,99.90
2022-08-27T08:36:06.772Z,99.90
2022-08-27T08:38:36.143Z,99.90
2022-08-27T08:41:06.038Z,99.90
2022-08-27T08:43:40.462Z,99.90
2022-08-27T08:46:14.298Z,99.90
2022-08-27T08:48:46.652Z,99.90
2022-08-27T08:51:23.101Z,99.90
2022-08-27T08:53:56.397Z,99.90
2022-08-27T08:56:30.139Z,99.90
2022-08-27T08:59:04.953Z,99.90
2022-08-27T09:01:35.375Z,99.90
2022-08-27T09:04:07.121Z,99.90
2022-08-27T09:06:43.482Z,99.90
2022-08-27T09:09:21.998Z,99.90
2022-08-27T09:11:59.291Z,99.90
2022-08-27T09:14:39.205Z,99.90
2022-08-27T09:17:11.755Z,99.90
2022-08-27T09:19:40.055Z,99.90
2022-08-27T09:22:20.674Z,99.90
2022-08-27T09:25:05.468Z,99.90
2022-08-27T09:27:36.067Z,99.90
2022-08-27T09:30:11.248Z,99.90
2022-08-27T09:32:41.162Z,99.90
2022-08-27T09:35:12.932Z,99.90
2022-08-27T09:37:49.202Z,99.90
2022-08-27T09:40:23.564Z,99.90
2022-08-27T09:42:56.083Z,99.90
2022-08-27T09:45:27.900Z,99.90
2022-08-27T09:48:05.050Z,99.90
2022-08-27T09:50:41.783Z,99.90
2022-08-27T09:53:21.281Z,99.90
2022-08-27T09:55:55.092Z,99.90
2022-08-27T09:58:26.898Z,99.90
2022-08-27T10:01:07.134Z,99.90
2022-08-27T10:03:39.115Z,99.90
2022-08-27T10:06:09.277Z,99.90
2022-08-27T10:08:42.991Z,99.90
2022-08-27T10:11:16.304Z,99.90
2022-08-27T10:13:54.090Z,99.90
2022-08-27T10:16:53.070Z,99.90
2022-08-27T10:19:38.139Z,99.90
2022-08-27T10:22:16.163Z,99.90
2022-08-27T10:25:01.072Z,99.90
2022-08-27T10:27:36.596Z,99.90
2022-08-27T10:30:10.142Z,99.90
2022-08-27T10:32:57.119Z,99.90
2022-08-27T10:35:31.156Z,99.90
2022-08-27T10:38:12.328Z,99.90
2022-08-27T10:40:52.093Z,99.90
2022-08-27T10:43:43.509Z,99.90
2022-08-27T10:46:50.138Z,99.90
2022-08-27T10:49:27.145Z,99.90
2022-08-27T10:52:08.269Z,99.90
2022-08-27T10:54:44.624Z,99.90
2022-08-27T10:57:39.989Z,99.90
2022-08-27T11:00:13.914Z,99.90
2022-08-27T11:02:48.788Z,99.90
2022-08-27T11:05:22.046Z,99.90
2022-08-27T11:07:56.648Z,99.90
2022-08-27T11:10:29.969Z,99.90
2022-08-27T11:13:04.663Z,99.90
2022-08-27T11:15:37.059Z,99.90
2022-08-27T11:18:13.270Z,99.90
2022-08-27T11:20:50.984Z,99.90
2022-08-27T11:23:26.199Z,99.90
2022-08-27T11:26:02.231Z,99.90
2022-08-27T11:28:38.078Z,99.90
2022-08-27T11:31:15.249Z,99.90
2022-08-27T11:33:50.855Z,99.90
2022-08-27T11:36:57.080Z,99.90
2022-08-27T11:39:51.562Z,99.90
2022-08-27T11:42:29.059Z,99.90
2022-08-27T11:45:08.244Z,99.90
2022-08-27T11:47:38.922Z,99.90
2022-08-27T11:50:18.094Z,99.90
2022-08-27T11:52:59.453Z,99.90
2022-08-27T11:55:36.969Z,99.90
2022-08-27T11:58:09.948Z,99.90
2022-08-27T12:00:43.446Z,99.90
2022-08-27T12:03:28.787Z,99.90
2022-08-27T12:06:12.341Z,99.90
2022-08-27T12:08:42.100Z,99.90
2022-08-27T12:11:32.219Z,99.90
2022-08-27T12:14:14.317Z,99.90
2022-08-27T12:16:51.610Z,99.90
2022-08-27T12:19:30.209Z,99.90
2022-08-27T12:22:22.216Z,99.90
2022-08-27T12:24:56.688Z,99.90
2022-08-27T12:27:38.344Z,99.90
2022-08-27T12:30:22.739Z,99.90
2022-08-27T12:32:54.525Z,99.90
2022-08-27T12:35:27.559Z,99.90
2022-08-27T12:38:08.705Z,98.90
2022-08-27T12:40:44.148Z,98.60
2022-08-27T12:43:16.526Z,97.20
2022-08-27T12:45:48.164Z,97.00
2022-08-27T12:48:21.216Z,97.50
2022-08-27T12:50:55.144Z,96.20
2022-08-27T12:53:37.240Z,97.30
2022-08-27T12:56:24.137Z,97.50
2022-08-27T12:59:05.131Z,98.60
2022-08-27T13:01:46.200Z,97.60
2022-08-27T13:04:22.784Z,97.80
2022-08-27T13:06:52.228Z,94.90
2022-08-27T13:09:28.481Z,95.30
2022-08-27T13:11:59.643Z,94.70
2022-08-27T13:14:33.780Z,94.70
2022-08-27T13:17:10.166Z,94.30
2022-08-27T13:19:49.231Z,93.30
2022-08-27T13:22:25.244Z,93.50
2022-08-27T13:24:56.263Z,93.30
2022-08-27T13:27:28.255Z,93.00
2022-08-27T13:29:59.535Z,93.00
2022-08-27T13:32:31.054Z,92.50
2022-08-27T13:35:01.160Z,91.90
2022-08-27T13:37:34.974Z,92.10
2022-08-27T13:40:04.468Z,91.10
2022-08-27T13:42:34.787Z,91.50
2022-08-27T13:45:08.164Z,91.50
2022-08-27T13:47:49.008Z,90.50
2022-08-27T13:50:24.116Z,89.40
2022-08-27T13:53:12.168Z,89.20
2022-08-27T13:55:42.052Z,87.10
2022-08-27T13:58:19.660Z,85.30
2022-08-27T14:00:47.860Z,80.00
2022-08-27T14:03:30.916Z,80.10
2022-08-27T14:06:00.267Z,76.40
2022-08-27T14:08:32.616Z,76.60
2022-08-27T14:11:03.607Z,75.60
2022-08-27T14:13:40.408Z,74.90
2022-08-27T14:16:23.653Z,74.00
2022-08-27T14:18:59.392Z,72.90
2022-08-27T14:21:27.982Z,73.60
2022-08-27T14:23:56.311Z,75.10
2022-08-27T14:26:29.474Z,77.90
2022-08-27T14:28:59.044Z,74.00
2022-08-27T14:31:27.287Z,71.80
2022-08-27T14:33:55.844Z,72.90
2022-08-27T14:36:29.386Z,74.00
2022-08-27T14:38:58.444Z,74.70
2022-08-27T14:41:29.228Z,76.20
2022-08-27T14:44:03.678Z,76.10
2022-08-27T14:46:41.555Z,71.40
2022-08-27T14:49:14.974Z,75.00
2022-08-27T14:51:46.046Z,72.70
2022-08-27T14:54:14.350Z,71.70
2022-08-27T14:56:45.142Z,70.70
2022-08-27T14:59:16.944Z,68.30
2022-08-27T15:01:46.273Z,69.70
2022-08-27T15:04:14.654Z,72.90
2022-08-27T15:06:43.234Z,73.70
2022-08-27T15:09:15.400Z,71.00
2022-08-27T15:11:45.338Z,73.50
2022-08-27T15:14:20.145Z,73.00
2022-08-27T15:16:49.368Z,72.90
2022-08-27T15:19:18.329Z,73.10
2022-08-27T15:21:49.242Z,71.90
2022-08-27T15:24:24.567Z,73.10
2022-08-27T15:26:54.126Z,74.70
2022-08-27T15:29:24.363Z,73.40
2022-08-27T15:31:52.554Z,75.90
2022-08-27T15:34:23.358Z,75.20
2022-08-27T15:36:51.380Z,77.30
2022-08-27T15:39:20.573Z,76.70
2022-08-27T15:42:05.884Z,78.50
2022-08-27T15:44:37.387Z,79.00
2022-08-27T15:47:07.629Z,79.40
2022-08-27T15:49:35.905Z,80.90
2022-08-27T15:52:04.822Z,81.70
2022-08-27T15:54:32.996Z,83.10
2022-08-27T15:57:01.164Z,84.00
2022-08-27T15:59:29.321Z,83.10
2022-08-27T16:02:03.346Z,84.70
2022-08-27T16:04:31.515Z,83.30
2022-08-27T16:06:59.484Z,86.90
2022-08-27T16:09:27.541Z,88.00
2022-08-27T16:11:55.514Z,87.00
2022-08-27T16:14:23.664Z,87.80
2022-08-27T16:16:54.815Z,86.10
2022-08-27T16:19:25.666Z,86.90
2022-08-27T16:21:54.008Z,87.10
2022-08-27T16:24:23.028Z,86.60
2022-08-27T16:26:51.117Z,86.10
2022-08-27T16:29:19.274Z,88.00
2022-08-27T16:31:47.458Z,87.50
2022-08-27T16:34:22.752Z,87.60
2022-08-27T16:36:52.088Z,87.00
2022-08-27T16:39:20.399Z,87.70
2022-08-27T16:41:48.668Z,89.10
2022-08-27T16:44:20.230Z,88.70
2022-08-27T16:46:48.256Z,88.80
2022-08-27T16:49:34.093Z,87.70
2022-08-27T16:52:04.194Z,89.50
2022-08-27T16:54:35.800Z,90.00
2022-08-27T16:57:04.708Z,90.40
2022-08-27T16:59:33.989Z,90.70
2022-08-27T17:02:02.324Z,90.60
2022-08-27T17:04:38.115Z,90.50
2022-08-27T17:07:12.300Z,89.30
2022-08-27T17:09:43.786Z,90.00
2022-08-27T17:12:14.276Z,89.70
2022-08-27T17:14:42.314Z,90.10
2022-08-27T17:17:11.278Z,90.50
2022-08-27T17:19:39.273Z,90.30
2022-08-27T17:22:09.558Z,90.60
2022-08-27T17:24:39.700Z,91.80
2022-08-27T17:27:07.751Z,91.80
2022-08-27T17:29:36.841Z,91.60
2022-08-27T17:32:06.218Z,91.50
2022-08-27T17:34:35.414Z,91.20
2022-08-27T17:37:03.464Z,92.00
2022-08-27T17:39:34.602Z,92.80
2022-08-27T17:42:04.623Z,93.20
2022-08-27T17:44:36.372Z,92.60
2022-08-27T17:47:07.185Z,92.90
2022-08-27T17:49:35.565Z,93.60
2022-08-27T17:52:06.619Z,93.10
2022-08-27T17:54:39.403Z,93.00
2022-08-27T17:57:17.003Z,92.50
2022-08-27T17:59:45.954Z,92.40
2022-08-27T18:02:19.571Z,92.20
2022-08-27T18:04:48.179Z,92.00
2022-08-27T18:07:17.175Z,92.20
2022-08-27T18:09:45.437Z,92.70
2022-08-27T18:12:18.747Z,93.30
2022-08-27T18:14:49.712Z,93.70
2022-08-27T18:17:17.839Z,93.50
2022-08-27T18:19:46.217Z,93.30
2022-08-27T18:22:21.607Z,93.10
2022-08-27T18:24:50.057Z,92.60
2022-08-27T18:27:22.335Z,92.80
2022-08-27T18:29:51.421Z,92.80
2022-08-27T18:32:28.431Z,92.60
2022-08-27T18:34:58.621Z,92.60
2022-08-27T18:37:26.662Z,92.90
2022-08-27T18:39:54.909Z,93.10
2022-08-27T18:42:24.407Z,93.20
2022-08-27T18:44:55.461Z,93.40
2022-08-27T18:47:24.355Z,93.70
2022-08-27T18:49:53.425Z,93.80
2022-08-27T18:52:23.618Z,94.50
2022-08-27T18:54:51.856Z,94.30
2022-08-27T18:57:24.803Z,94.60
2022-08-27T18:59:53.715Z,95.00
2022-08-27T19:02:22.532Z,95.10
2022-08-27T19:04:50.778Z,95.50
2022-08-27T19:07:19.059Z,96.00
2022-08-27T19:09:47.786Z,95.60
2022-08-27T19:12:17.585Z,96.00
2022-08-27T19:14:48.420Z,95.70
2022-08-27T19:17:26.212Z,96.60
2022-08-27T19:19:55.044Z,96.20
2022-08-27T19:22:23.451Z,96.30
2022-08-27T19:24:53.015Z,96.70
2022-08-27T19:27:25.207Z,96.60
2022-08-27T19:29:56.075Z,96.60
2022-08-27T19:32:24.165Z,96.80
2022-08-27T19:34:54.220Z,97.20
2022-08-27T19:37:26.320Z,97.00
2022-08-27T19:39:55.310Z,97.20
2022-08-27T19:42:23.840Z,96.90
2022-08-27T19:44:52.176Z,97.30
2022-08-27T19:47:26.059Z,97.00
2022-08-27T19:49:57.466Z,96.60
2022-08-27T19:52:25.659Z,96.80
2022-08-27T19:55:12.469Z,97.80
2022-08-27T19:57:44.861Z,97.70
2022-08-27T20:00:15.824Z,98.10
2022-08-27T20:02:45.349Z,97.70
2022-08-27T20:05:18.290Z,98.40
2022-08-27T20:07:47.138Z,98.90
2022-08-27T20:10:16.350Z,99.40
2022-08-27T20:12:44.691Z,98.00
2022-08-27T20:15:13.746Z,98.40
2022-08-27T20:17:43.619Z,99.00
2022-08-27T20:20:14.482Z,99.10
2022-08-27T20:22:42.782Z,98.50
2022-08-27T20:25:13.309Z,99.10
2022-08-27T20:27:42.157Z,99.90
2022-08-27T20:30:13.744Z,99.90
2022-08-27T20:32:43.222Z,98.90
2022-08-27T20:35:12.958Z,98.90
2022-08-27T20:37:42.792Z,99.90
2022-08-27T20:40:14.526Z,99.90
2022-08-27T20:42:46.138Z,99.90
2022-08-27T20:45:16.423Z,99.90
2022-08-27T20:47:47.084Z,99.90
2022-08-27T20:50:19.436Z,99.90
2022-08-27T20:52:48.071Z,99.90
2022-08-27T20:55:18.432Z,99.90
2022-08-27T20:58:06.382Z,99.90
2022-08-27T21:00:37.601Z,99.90
2022-08-27T21:03:05.695Z,99.90
2022-08-27T21:05:36.335Z,99.90
2022-08-27T21:08:06.921Z,99.90
2022-08-27T21:10:35.743Z,99.90
2022-08-27T21:13:07.314Z,99.90
2022-08-27T21:15:37.457Z,99.90
2022-08-27T21:18:06.567Z,99.90
2022-08-27T21:20:39.576Z,99.90
2022-08-27T21:23:08.549Z,99.90
2022-08-27T21:25:36.612Z,99.90
2022-08-27T21:28:07.534Z,99.90
2022-08-27T21:30:39.167Z,99.90
2022-08-27T21:33:08.564Z,99.90
2022-08-27T21:35:37.453Z,99.90
2022-08-27T21:38:07.606Z,99.90
2022-08-27T21:40:36.519Z,99.90
2022-08-27T21:43:08.732Z,99.90
2022-08-27T21:45:39.191Z,99.90
2022-08-27T21:48:07.682Z,99.90
2022-08-27T21:50:35.845Z,99.90
2022-08-27T21:53:04.618Z,99.90
2022-08-27T21:55:36.971Z,99.90
2022-08-27T21:58:06.986Z,99.90
2022-08-27T22:00:45.103Z,99.90
2022-08-27T22:03:15.767Z,99.90
2022-08-27T22:05:45.511Z,99.90
2022-08-27T22:08:16.587Z,99.90
2022-08-27T22:10:49.478Z,99.90
2022-08-27T22:13:18.590Z,99.90
2022-08-27T22:15:47.599Z,99.90
2022-08-27T22:18:23.124Z,99.90
2022-08-27T22:20:52.607Z,99.90
2022-08-27T22:23:24.418Z,99.90
2022-08-27T22:25:59.888Z,99.90
2022-08-27T22:28:37.585Z,99.90
2022-08-27T22:31:08.645Z,99.90
2022-08-27T22:33:39.739Z,99.90
2022-08-27T22:36:09.444Z,99.90
2022-08-27T22:38:39.956Z,99.90
2022-08-27T22:41:09.952Z,99.90
2022-08-27T22:43:39.623Z,99.90
2022-08-27T22:46:12.060Z,99.90
2022-08-27T22:48:41.796Z,99.90
2022-08-27T22:51:12.616Z,99.90
2022-08-27T22:53:41.687Z,99.90
2022-08-27T22:56:12.265Z,99.90
2022-08-27T22:58:46.073Z,99.90
2022-08-27T23:01:14.765Z,99.90
2022-08-27T23:03:43.778Z,99.90
2022-08-27T23:06:12.659Z,99.90
2022-08-27T23:08:41.544Z,99.90
2022-08-27T23:11:11.534Z,99.90
2022-08-27T23:13:41.662Z,99.90
2022-08-27T23:16:10.099Z,99.90
2022-08-27T23:18:39.856Z,99.90
2022-08-27T23:21:09.465Z,99.90
2022-08-27T23:23:40.135Z,99.90
2022-08-27T23:26:27.822Z,99.90
2022-08-27T23:28:57.624Z,99.90
2022-08-27T23:31:26.727Z,99.90
2022-08-27T23:33:57.269Z,99.90
2022-08-27T23:36:25.445Z,99.90
2022-08-27T23:38:53.859Z,99.90
2022-08-27T23:41:22.544Z,99.90
2022-08-27T23:43:53.991Z,99.90
2022-08-27T23:46:24.638Z,99.90
2022-08-27T23:48:53.677Z,99.90
2022-08-27T23:51:22.101Z,99.90
2022-08-27T23:53:51.320Z,99.90
2022-08-27T23:56:20.154Z,99.90
2022-08-27T23:58:52.501Z,99.90
